createdAt,value
2019-05-25T00:00:32.653Z,15.40
2019-05-25T00:03:05.063Z,15.40
2019-05-25T00:05:37.313Z,15.30
2019-05-25T00:08:09.626Z,15.30
2019-05-25T00:10:41.863Z,15.20
2019-05-25T00:13:14.912Z,15.10
2019-05-25T00:15:47.117Z,15.10
2019-05-25T00:18:20.188Z,15.00
2019-05-25T00:20:52.672Z,15.00
2019-05-25T00:23:24.910Z,14.90
2019-05-25T00:25:57.300Z,14.90
2019-05-25T00:28:29.611Z,14.80
2019-05-25T00:31:01.812Z,14.50
2019-05-25T00:33:34.430Z,14.20
2019-05-25T00:36:06.834Z,14.20
2019-05-25T00:38:39.295Z,14.20
2019-05-25T00:41:11.565Z,14.20
2019-05-25T00:43:44.491Z,13.90
2019-05-25T00:46:17.260Z,13.80
2019-05-25T00:48:49.566Z,13.90
2019-05-25T00:51:21.778Z,13.90
2019-05-25T00:53:53.991Z,13.90
2019-05-25T00:56:26.606Z,13.90
2019-05-25T00:58:58.904Z,13.90
2019-05-25T01:01:31.435Z,13.80
2019-05-25T01:04:03.709Z,13.80
2019-05-25T01:06:35.933Z,13.70
2019-05-25T01:09:08.697Z,13.70
2019-05-25T01:11:41.173Z,13.60
2019-05-25T01:14:13.347Z,13.40
2019-05-25T01:16:45.569Z,13.40
2019-05-25T01:19:18.031Z,13.30
2019-05-25T01:21:50.203Z,13.30
2019-05-25T01:24:22.384Z,13.30
2019-05-25T01:26:54.924Z,13.30
2019-05-25T01:29:27.124Z,13.10
2019-05-25T01:32:00.024Z,13.00
2019-05-25T01:34:32.141Z,13.00
2019-05-25T01:37:04.349Z,13.00
2019-05-25T01:39:36.514Z,13.00
2019-05-25T01:42:08.862Z,13.00
2019-05-25T01:44:41.114Z,12.90
2019-05-25T01:47:13.266Z,12.90
2019-05-25T01:49:45.804Z,12.80
2019-05-25T01:52:18.225Z,12.80
2019-05-25T01:54:59.509Z,12.70
2019-05-25T01:57:25.523Z,12.60
2019-05-25T01:59:57.672Z,12.60
2019-05-25T02:02:30.305Z,12.40
2019-05-25T02:05:02.513Z,12.40
2019-05-25T02:07:35.777Z,12.20
2019-05-25T02:10:08.875Z,12.00
2019-05-25T02:12:41.354Z,11.90
2019-05-25T02:15:14.319Z,11.70
2019-05-25T02:17:46.464Z,11.70
2019-05-25T02:20:19.221Z,11.60
2019-05-25T02:22:51.538Z,11.70
2019-05-25T02:25:23.847Z,11.70
2019-05-25T02:27:56.353Z,11.70
2019-05-25T02:30:29.193Z,11.60
2019-05-25T02:33:01.531Z,11.70
2019-05-25T02:35:34.077Z,11.70
2019-05-25T02:38:06.353Z,11.70
2019-05-25T02:40:38.575Z,11.60
2019-05-25T02:43:11.148Z,11.60
2019-05-25T02:45:43.652Z,11.60
2019-05-25T02:48:16.091Z,11.50
2019-05-25T02:50:48.441Z,11.50
2019-05-25T02:53:22.147Z,11.50
2019-05-25T02:55:54.642Z,11.40
2019-05-25T02:58:26.883Z,11.40
2019-05-25T03:00:59.492Z,11.30
2019-05-25T03:03:31.820Z,11.30
2019-05-25T03:06:06.422Z,11.20
2019-05-25T03:08:40.432Z,11.20
2019-05-25T03:11:13.830Z,11.20
2019-05-25T03:13:46.236Z,11.20
2019-05-25T03:16:18.485Z,11.20
2019-05-25T03:18:50.684Z,11.20
2019-05-25T03:21:23.027Z,11.20
2019-05-25T03:23:55.342Z,11.10
2019-05-25T03:26:27.687Z,11.20
2019-05-25T03:29:00.071Z,11.20
2019-05-25T03:31:32.384Z,11.20
2019-05-25T03:34:04.932Z,11.20
2019-05-25T03:36:37.101Z,11.20
2019-05-25T03:39:09.776Z,11.30
2019-05-25T03:41:41.994Z,11.20
2019-05-25T03:44:14.267Z,11.20
2019-05-25T03:46:46.480Z,10.90
2019-05-25T03:49:18.685Z,10.70
2019-05-25T03:51:51.038Z,10.80
2019-05-25T03:54:23.448Z,10.90
2019-05-25T03:56:55.569Z,11.00
2019-05-25T03:59:28.434Z,11.10
2019-05-25T04:02:00.669Z,11.10
2019-05-25T04:04:32.808Z,11.10
2019-05-25T04:07:05.088Z,11.10
2019-05-25T04:09:37.336Z,11.10
2019-05-25T04:12:10.480Z,11.10
2019-05-25T04:14:42.998Z,11.10
2019-05-25T04:17:15.614Z,11.10
2019-05-25T04:19:47.961Z,11.10
2019-05-25T04:22:20.490Z,11.10
2019-05-25T04:24:52.713Z,11.20
2019-05-25T04:27:25.196Z,11.20
2019-05-25T04:29:57.483Z,11.30
2019-05-25T04:32:29.685Z,11.30
2019-05-25T04:35:01.925Z,11.30
2019-05-25T04:37:34.151Z,11.40
2019-05-25T04:40:06.851Z,11.40
2019-05-25T04:42:39.235Z,11.50
2019-05-25T04:45:13.350Z,11.60
2019-05-25T04:47:45.509Z,11.60
2019-05-25T04:50:18.125Z,11.70
2019-05-25T04:52:50.483Z,11.80
2019-05-25T04:55:22.736Z,11.80
2019-05-25T04:57:55.955Z,11.70
2019-05-25T05:00:28.739Z,11.70
2019-05-25T05:03:01.020Z,11.70
2019-05-25T05:05:33.368Z,11.70
2019-05-25T05:08:05.661Z,11.70
2019-05-25T05:10:37.911Z,11.80
2019-05-25T05:13:10.452Z,11.80
2019-05-25T05:15:42.748Z,11.80
2019-05-25T05:18:15.056Z,11.80
2019-05-25T05:20:47.335Z,11.80
2019-05-25T05:23:20.875Z,11.90
2019-05-25T05:25:53.860Z,11.90
2019-05-25T05:28:26.250Z,11.90
2019-05-25T05:30:58.529Z,12.00
2019-05-25T05:33:30.715Z,12.10
2019-05-25T05:36:04.558Z,12.20
2019-05-25T05:38:37.486Z,12.40
2019-05-25T05:41:12.296Z,12.50
2019-05-25T05:43:47.664Z,12.50
2019-05-25T05:46:21.672Z,12.60
2019-05-25T05:48:55.471Z,12.60
2019-05-25T05:51:30.028Z,12.70
2019-05-25T05:54:04.797Z,12.80
2019-05-25T05:56:37.212Z,13.00
2019-05-25T05:59:09.381Z,13.20
2019-05-25T06:01:41.558Z,13.30
2019-05-25T06:04:13.794Z,13.30
2019-05-25T06:06:46.055Z,13.30
2019-05-25T06:09:18.577Z,13.40
2019-05-25T06:11:50.875Z,13.40
2019-05-25T06:14:23.246Z,13.50
2019-05-25T06:16:56.077Z,13.50
2019-05-25T06:19:28.637Z,13.60
2019-05-25T06:22:01.231Z,13.80
2019-05-25T06:24:33.431Z,13.90
2019-05-25T06:27:05.775Z,14.10
2019-05-25T06:29:38.077Z,14.00
2019-05-25T06:32:10.703Z,14.20
2019-05-25T06:34:42.915Z,14.40
2019-05-25T06:37:15.183Z,14.40
2019-05-25T06:39:47.341Z,14.50
2019-05-25T06:42:19.564Z,14.20
2019-05-25T06:44:51.814Z,14.20
2019-05-25T06:47:24.521Z,14.20
2019-05-25T06:49:56.924Z,14.30
2019-05-25T06:52:29.316Z,14.30
2019-05-25T06:55:01.793Z,14.20
2019-05-25T06:57:43.131Z,14.20
2019-05-25T07:00:09.896Z,14.30
2019-05-25T07:02:42.534Z,14.30
2019-05-25T07:05:15.771Z,14.20
2019-05-25T07:07:48.087Z,14.10
2019-05-25T07:10:22.335Z,14.10
2019-05-25T07:12:54.793Z,14.10
2019-05-25T07:15:28.095Z,14.10
2019-05-25T07:18:01.448Z,14.10
2019-05-25T07:20:54.374Z,14.10
2019-05-25T07:23:28.926Z,14.10
2019-05-25T07:26:01.554Z,14.10
2019-05-25T07:28:34.004Z,14.10
2019-05-25T07:31:06.845Z,14.00
2019-05-25T07:33:39.429Z,14.00
2019-05-25T07:36:11.633Z,14.00
2019-05-25T07:38:43.925Z,14.00
2019-05-25T07:41:16.530Z,14.00
2019-05-25T07:43:49.058Z,14.00
2019-05-25T07:46:21.363Z,14.10
2019-05-25T07:48:53.956Z,14.20
2019-05-25T07:51:26.245Z,14.00
2019-05-25T07:53:58.530Z,13.80
2019-05-25T07:56:30.824Z,13.90
2019-05-25T07:59:03.126Z,13.90
2019-05-25T08:01:35.367Z,13.90
2019-05-25T08:04:07.780Z,13.90
2019-05-25T08:06:40.157Z,14.00
2019-05-25T08:09:13.342Z,14.00
2019-05-25T08:11:46.099Z,14.10
2019-05-25T08:14:19.789Z,14.10
2019-05-25T08:16:52.434Z,13.90
2019-05-25T08:19:25.938Z,14.00
2019-05-25T08:21:58.258Z,14.10
2019-05-25T08:24:30.940Z,14.10
2019-05-25T08:27:03.467Z,14.20
2019-05-25T08:29:35.988Z,14.10
2019-05-25T08:32:08.687Z,14.20
2019-05-25T08:34:41.374Z,14.20
2019-05-25T08:37:13.859Z,14.20
2019-05-25T08:39:46.728Z,14.20
2019-05-25T08:42:19.545Z,14.00
2019-05-25T08:44:52.110Z,14.00
2019-05-25T08:47:24.383Z,13.90
2019-05-25T08:49:56.806Z,13.90
2019-05-25T08:52:28.991Z,13.90
2019-05-25T08:55:01.689Z,14.00
2019-05-25T08:57:34.451Z,14.00
2019-05-25T09:00:08.726Z,14.20
2019-05-25T09:02:40.979Z,14.10
2019-05-25T09:05:13.411Z,14.00
2019-05-25T09:07:45.791Z,14.00
2019-05-25T09:10:19.492Z,14.10
2019-05-25T09:12:51.863Z,14.30
2019-05-25T09:15:24.284Z,14.40
2019-05-25T09:17:56.689Z,14.50
2019-05-25T09:20:28.986Z,14.50
2019-05-25T09:23:01.167Z,14.90
2019-05-25T09:25:34.128Z,15.00
2019-05-25T09:28:06.657Z,15.20
2019-05-25T09:30:39.155Z,15.20
2019-05-25T09:33:11.558Z,15.20
2019-05-25T09:35:43.929Z,15.40
2019-05-25T09:38:16.101Z,15.60
2019-05-25T09:40:48.751Z,15.80
2019-05-25T09:43:21.293Z,15.90
2019-05-25T09:45:53.798Z,16.00
2019-05-25T09:48:26.232Z,15.90
2019-05-25T09:50:58.462Z,15.80
2019-05-25T09:53:31.139Z,15.80
2019-05-25T09:56:03.639Z,15.60
2019-05-25T09:58:37.047Z,15.50
2019-05-25T10:01:09.906Z,15.50
2019-05-25T10:03:42.664Z,15.60
2019-05-25T10:06:15.256Z,15.80
2019-05-25T10:08:47.563Z,15.90
2019-05-25T10:11:20.093Z,16.40
2019-05-25T10:13:52.596Z,16.60
2019-05-25T10:16:25.289Z,16.50
2019-05-25T10:18:57.979Z,16.40
2019-05-25T10:21:30.266Z,16.40
2019-05-25T10:24:02.718Z,16.20
2019-05-25T10:26:35.264Z,15.80
2019-05-25T10:29:08.090Z,15.50
2019-05-25T10:31:40.417Z,15.40
2019-05-25T10:34:12.951Z,15.50
2019-05-25T10:36:46.642Z,15.50
2019-05-25T10:39:18.940Z,16.00
2019-05-25T10:41:51.782Z,16.40
2019-05-25T10:44:24.099Z,16.50
2019-05-25T10:46:56.297Z,16.40
2019-05-25T10:49:28.826Z,16.40
2019-05-25T10:52:01.314Z,16.30
2019-05-25T10:54:33.676Z,16.10
2019-05-25T10:57:06.757Z,15.80
2019-05-25T10:59:51.925Z,15.80
2019-05-25T11:02:14.054Z,16.10
2019-05-25T11:04:46.572Z,16.40
2019-05-25T11:07:19.354Z,16.80
2019-05-25T11:09:51.764Z,17.10
2019-05-25T11:12:26.087Z,17.20
2019-05-25T11:14:58.496Z,16.90
2019-05-25T11:17:31.211Z,16.60
2019-05-25T11:20:03.583Z,16.50
2019-05-25T11:22:36.027Z,16.50
2019-05-25T11:25:09.741Z,16.50
2019-05-25T11:27:42.134Z,16.50
2019-05-25T11:30:15.827Z,16.30
2019-05-25T11:32:48.601Z,16.20
2019-05-25T11:35:21.130Z,16.30
2019-05-25T11:37:53.859Z,16.50
2019-05-25T11:40:26.563Z,16.60
2019-05-25T11:42:59.292Z,16.50
2019-05-25T11:45:31.818Z,16.40
2019-05-25T11:48:04.628Z,16.40
2019-05-25T11:50:37.238Z,16.20
2019-05-25T11:53:10.157Z,16.30
2019-05-25T11:55:43.150Z,16.40
2019-05-25T11:58:15.653Z,16.70
2019-05-25T12:00:47.965Z,16.80
2019-05-25T12:03:20.249Z,16.70
2019-05-25T12:05:52.618Z,16.50
2019-05-25T12:08:25.416Z,16.50
2019-05-25T12:10:58.080Z,16.30
2019-05-25T12:13:32.213Z,16.20
2019-05-25T12:16:04.398Z,16.10
2019-05-25T12:18:36.669Z,16.00
2019-05-25T12:21:09.234Z,16.00
2019-05-25T12:23:42.773Z,15.90
2019-05-25T12:26:15.928Z,16.00
2019-05-25T12:28:48.490Z,16.00
2019-05-25T12:31:20.949Z,16.10
2019-05-25T12:33:53.433Z,16.20
2019-05-25T12:36:25.906Z,16.20
2019-05-25T12:38:58.109Z,16.20
2019-05-25T12:41:30.418Z,16.10
2019-05-25T12:44:02.845Z,16.30
2019-05-25T12:46:35.184Z,16.20
2019-05-25T12:49:07.777Z,16.10
2019-05-25T12:51:47.730Z,16.00
2019-05-25T12:54:19.970Z,16.10
2019-05-25T12:56:52.163Z,16.20
2019-05-25T12:59:24.471Z,16.30
2019-05-25T13:01:56.788Z,16.50
2019-05-25T13:04:29.018Z,16.60
2019-05-25T13:07:01.575Z,16.80
2019-05-25T13:09:33.749Z,16.70
2019-05-25T13:12:06.281Z,16.80
2019-05-25T13:14:38.587Z,16.70
2019-05-25T13:17:10.855Z,16.70
2019-05-25T13:19:43.022Z,16.50
2019-05-25T13:22:15.542Z,16.30
2019-05-25T13:24:47.714Z,16.30
2019-05-25T13:27:20.332Z,16.10
2019-05-25T13:29:53.530Z,16.10
2019-05-25T13:32:25.699Z,16.30
2019-05-25T13:34:57.878Z,16.50
2019-05-25T13:37:30.054Z,16.50
2019-05-25T13:40:02.278Z,16.60
2019-05-25T13:42:35.211Z,16.70
2019-05-25T13:45:08.567Z,16.80
2019-05-25T13:47:41.845Z,16.60
2019-05-25T13:50:14.291Z,16.50
2019-05-25T13:52:46.555Z,16.60
2019-05-25T13:55:18.917Z,16.50
2019-05-25T13:57:51.454Z,16.40
2019-05-25T14:00:23.796Z,16.40
2019-05-25T14:02:56.362Z,16.40
2019-05-25T14:05:28.789Z,16.60
2019-05-25T14:08:02.545Z,16.50
2019-05-25T14:10:34.718Z,16.50
2019-05-25T14:13:06.888Z,16.50
2019-05-25T14:15:39.294Z,16.50
2019-05-25T14:18:11.474Z,16.50
2019-05-25T14:20:48.864Z,16.50
2019-05-25T14:23:21.008Z,16.50
2019-05-25T14:25:53.353Z,16.30
2019-05-25T14:28:25.639Z,16.30
2019-05-25T14:30:58.964Z,16.30
2019-05-25T14:33:32.603Z,16.40
2019-05-25T14:36:06.836Z,16.40
2019-05-25T14:38:38.976Z,16.30
2019-05-25T14:41:11.688Z,16.30
2019-05-25T14:43:44.175Z,16.40
2019-05-25T14:46:27.323Z,16.50
2019-05-25T14:48:50.266Z,16.50
2019-05-25T14:51:22.718Z,16.40
2019-05-25T14:53:54.970Z,16.20
2019-05-25T14:56:27.540Z,16.00
2019-05-25T14:58:59.772Z,15.90
2019-05-25T15:01:31.994Z,15.90
2019-05-25T15:04:04.380Z,15.90
2019-05-25T15:06:37.070Z,15.80
2019-05-25T15:09:09.503Z,15.80
2019-05-25T15:11:42.339Z,15.80
2019-05-25T15:14:14.493Z,15.80
2019-05-25T15:16:46.812Z,15.80
2019-05-25T15:19:19.493Z,15.90
2019-05-25T15:21:52.973Z,15.90
2019-05-25T15:24:25.439Z,15.80
2019-05-25T15:26:58.006Z,15.90
2019-05-25T15:29:30.578Z,15.90
2019-05-25T15:32:18.892Z,16.00
2019-05-25T15:34:37.321Z,16.10
2019-05-25T15:37:09.557Z,16.10
2019-05-25T15:39:41.786Z,16.20
2019-05-25T15:42:14.027Z,16.20
2019-05-25T15:44:46.228Z,16.20
2019-05-25T15:47:18.669Z,16.20
2019-05-25T15:49:51.345Z,16.30
2019-05-25T15:52:23.696Z,16.20
2019-05-25T15:54:56.039Z,16.00
2019-05-25T15:57:29.995Z,16.00
2019-05-25T16:00:04.336Z,16.00
2019-05-25T16:02:37.219Z,15.90
2019-05-25T16:05:11.269Z,15.90
2019-05-25T16:07:47.629Z,15.90
2019-05-25T16:10:19.981Z,15.90
2019-05-25T16:12:53.349Z,15.80
2019-05-25T16:15:29.468Z,15.80
2019-05-25T16:18:01.755Z,15.70
2019-05-25T16:20:34.065Z,15.70
2019-05-25T16:23:06.399Z,15.60
2019-05-25T16:25:38.998Z,15.50
2019-05-25T16:28:13.279Z,15.50
2019-05-25T16:30:45.438Z,15.50
2019-05-25T16:33:17.703Z,15.50
2019-05-25T16:35:50.175Z,15.50
2019-05-25T16:38:22.320Z,15.40
2019-05-25T16:40:54.865Z,15.50
2019-05-25T16:43:27.086Z,15.40
2019-05-25T16:45:59.355Z,15.40
2019-05-25T16:48:31.876Z,15.40
2019-05-25T16:51:04.217Z,15.40
2019-05-25T16:53:36.442Z,15.40
2019-05-25T16:56:08.940Z,15.50
2019-05-25T16:58:41.127Z,15.60
2019-05-25T17:01:17.745Z,15.60
2019-05-25T17:03:48.368Z,15.50
2019-05-25T17:06:20.613Z,15.50
2019-05-25T17:08:56.208Z,15.50
2019-05-25T17:11:27.235Z,15.40
2019-05-25T17:13:59.721Z,15.40
2019-05-25T17:16:32.020Z,15.30
2019-05-25T17:19:04.286Z,15.40
2019-05-25T17:21:36.451Z,15.40
2019-05-25T17:24:10.091Z,15.30
2019-05-25T17:26:42.285Z,15.30
2019-05-25T17:29:14.899Z,15.30
2019-05-25T17:31:47.108Z,15.30
2019-05-25T17:34:19.854Z,15.30
2019-05-25T17:36:55.521Z,15.30
2019-05-25T17:39:28.278Z,15.30
2019-05-25T17:42:03.884Z,15.30
2019-05-25T17:44:36.245Z,15.20
2019-05-25T17:47:08.543Z,15.20
2019-05-25T17:49:41.346Z,15.20
2019-05-25T17:52:13.764Z,15.20
2019-05-25T17:54:46.248Z,15.10
2019-05-25T17:57:18.927Z,15.00
2019-05-25T17:59:54.459Z,15.00
2019-05-25T18:02:27.037Z,14.90
2019-05-25T18:04:59.694Z,14.90
2019-05-25T18:07:32.184Z,14.80
2019-05-25T18:10:05.604Z,14.80
2019-05-25T18:12:38.782Z,14.80
2019-05-25T18:15:12.091Z,14.70
2019-05-25T18:17:44.716Z,14.70
2019-05-25T18:20:19.698Z,14.60
2019-05-25T18:22:52.259Z,14.50
2019-05-25T18:25:24.995Z,14.60
2019-05-25T18:27:57.675Z,14.60
2019-05-25T18:30:31.070Z,14.50
2019-05-25T18:33:03.996Z,14.50
2019-05-25T18:35:36.632Z,14.60
2019-05-25T18:38:09.201Z,14.60
2019-05-25T18:40:41.849Z,14.60
2019-05-25T18:43:17.731Z,14.50
2019-05-25T18:45:50.292Z,14.50
2019-05-25T18:48:24.896Z,14.40
2019-05-25T18:50:57.725Z,14.40
2019-05-25T18:53:30.411Z,14.40
2019-05-25T18:56:03.080Z,14.30
2019-05-25T18:58:35.454Z,14.30
2019-05-25T19:01:08.255Z,14.20
2019-05-25T19:03:40.948Z,14.10
2019-05-25T19:06:13.363Z,13.90
2019-05-25T19:08:45.654Z,13.60
2019-05-25T19:11:18.689Z,13.60
2019-05-25T19:13:50.949Z,13.50
2019-05-25T19:16:23.293Z,13.30
2019-05-25T19:18:55.524Z,13.20
2019-05-25T19:21:28.176Z,13.20
2019-05-25T19:24:00.652Z,13.10
2019-05-25T19:26:33.030Z,13.00
2019-05-25T19:29:06.380Z,13.00
2019-05-25T19:31:38.536Z,12.80
2019-05-25T19:34:11.110Z,12.80
2019-05-25T19:36:43.412Z,12.80
2019-05-25T19:39:15.908Z,12.70
2019-05-25T19:41:48.201Z,12.70
2019-05-25T19:44:20.734Z,12.70
2019-05-25T19:46:53.356Z,12.60
2019-05-25T19:49:25.938Z,12.50
2019-05-25T19:52:00.253Z,12.40
2019-05-25T19:54:33.054Z,12.30
2019-05-25T19:57:05.828Z,12.30
2019-05-25T19:59:38.277Z,12.20
2019-05-25T20:02:10.691Z,12.20
2019-05-25T20:04:42.985Z,12.10
2019-05-25T20:07:15.479Z,12.10
2019-05-25T20:09:48.202Z,12.00
2019-05-25T20:12:20.582Z,11.90
2019-05-25T20:14:53.334Z,11.80
2019-05-25T20:17:26.050Z,11.70
2019-05-25T20:19:59.613Z,11.70
2019-05-25T20:22:32.039Z,11.70
2019-05-25T20:25:05.157Z,11.70
2019-05-25T20:27:38.207Z,11.70
2019-05-25T20:30:11.270Z,11.70
2019-05-25T20:32:44.479Z,11.70
2019-05-25T20:35:31.930Z,11.60
2019-05-25T20:37:52.644Z,11.50
2019-05-25T20:40:25.052Z,11.50
2019-05-25T20:42:57.422Z,11.50
2019-05-25T20:45:30.023Z,11.40
2019-05-25T20:48:02.738Z,11.40
2019-05-25T20:50:35.464Z,11.30
2019-05-25T20:53:08.036Z,11.30
2019-05-25T20:55:40.511Z,11.20
2019-05-25T20:58:13.245Z,11.30
2019-05-25T21:00:45.573Z,11.30
2019-05-25T21:03:18.104Z,11.30
2019-05-25T21:05:51.102Z,11.40
2019-05-25T21:08:23.543Z,11.30
2019-05-25T21:10:56.260Z,11.30
2019-05-25T21:13:28.802Z,11.30
2019-05-25T21:16:02.079Z,11.20
2019-05-25T21:18:34.843Z,11.20
2019-05-25T21:21:07.117Z,11.20
2019-05-25T21:23:39.393Z,11.30
2019-05-25T21:26:11.636Z,11.40
2019-05-25T21:28:43.831Z,11.40
2019-05-25T21:31:16.085Z,11.30
2019-05-25T21:33:48.649Z,11.30
2019-05-25T21:36:21.007Z,11.20
2019-05-25T21:38:53.224Z,11.10
2019-05-25T21:41:25.858Z,11.20
2019-05-25T21:43:57.998Z,11.10
2019-05-25T21:46:30.432Z,11.00
2019-05-25T21:49:03.009Z,11.00
2019-05-25T21:51:35.148Z,11.10
2019-05-25T21:54:07.571Z,11.00
2019-05-25T21:56:40.688Z,10.90
2019-05-25T21:59:13.942Z,11.00
2019-05-25T22:01:47.247Z,10.90
2019-05-25T22:04:19.506Z,10.90
2019-05-25T22:06:52.076Z,10.80
2019-05-25T22:09:24.254Z,10.70
2019-05-25T22:11:56.532Z,10.70
2019-05-25T22:14:29.932Z,10.70
2019-05-25T22:17:02.594Z,10.60
2019-05-25T22:19:34.815Z,10.50
2019-05-25T22:22:07.476Z,10.40
2019-05-25T22:24:40.515Z,10.50
2019-05-25T22:27:12.750Z,10.50
2019-05-25T22:29:44.996Z,10.50
2019-05-25T22:32:18.305Z,10.50
2019-05-25T22:34:52.766Z,10.50
2019-05-25T22:37:25.044Z,10.50
2019-05-25T22:39:57.185Z,10.50
2019-05-25T22:42:29.681Z,10.30
2019-05-25T22:45:01.919Z,10.20
2019-05-25T22:47:34.702Z,10.20
2019-05-25T22:50:07.239Z,10.10
2019-05-25T22:52:39.498Z,10.10
2019-05-25T22:55:12.228Z,10.10
2019-05-25T22:57:45.494Z,10.10
2019-05-25T23:00:19.648Z,9.90
2019-05-25T23:02:51.801Z,10.00
2019-05-25T23:05:24.108Z,10.00
2019-05-25T23:07:56.839Z,10.00
2019-05-25T23:10:29.178Z,9.90
2019-05-25T23:13:01.445Z,9.90
2019-05-25T23:15:34.049Z,10.00
2019-05-25T23:18:06.672Z,10.00
2019-05-25T23:20:38.973Z,10.00
2019-05-25T23:23:13.090Z,9.90
2019-05-25T23:25:45.724Z,9.80
2019-05-25T23:28:18.006Z,9.80
2019-05-25T23:30:50.220Z,9.90
2019-05-25T23:33:22.451Z,9.90
2019-05-25T23:35:54.596Z,10.00
2019-05-25T23:38:26.822Z,10.20
2019-05-25T23:40:59.439Z,10.30
2019-05-25T23:43:31.940Z,10.40
2019-05-25T23:46:04.188Z,10.40
2019-05-25T23:48:36.489Z,10.40
2019-05-25T23:51:08.683Z,10.40
2019-05-25T23:53:40.848Z,10.40
2019-05-25T23:56:13.385Z,10.40
2019-05-25T23:58:45.611Z,10.30
